x

Dauphin Island, Al (dpia1) Weather Station

1:00pm - Tue 23rd Sep 2014 All times are CDT. -5 hours from GMT.

  • Wind
    10mph, 13mph gusts
  • Air Temp 77°f
  • Sea Pressure 1018.5mb
  • Dauphin Island, Al
  • Dauphin Island, Al

More Historic Weather Station data

Upgrade to MSW Pro to gain access to the past 30 days of data for over 8000 Wavebouys and Weather Stations around the globe.

Join Pro

Comparision Forecast

View Surf forecast
   
Tue 09/23 1:00pm 10 13 mph 1018.5mb 77f
12:00pm 13 14 mph 1018.9mb 74f
11:00am 13 15 mph 1019.2mb 73f
10:00am 15 17 mph 1019.1mb 71f
9:00am 11 13 mph 1019mb 70f
8:00am 16 18 mph 1018.7mb 70f
7:00am 23 25 mph 1018.2mb 71f
6:00am 23 26 mph 1017.8mb 72f
5:00am 25 29 mph 1017.2mb 73f
4:00am 24 25 mph 1017mb 74f
3:00am 20 22 mph 1017mb 74f
2:00am 17 20 mph 1017.3mb 76f
1:00am 18 20 mph 1017.2mb 77f
12:00am 16 18 mph 1017.1mb 78f
Mon 09/22 11:00pm 15 18 mph 1017.1mb 78f
10:00pm 14 16 mph 1016.8mb 80f
9:00pm 18 20 mph 1016.7mb 81f
8:00pm 16 18 mph 1016.1mb 82f
7:00pm 20 21 mph 1015.4mb 82f
6:00pm 23 25 mph 1014.9mb 82f
5:00pm 22 25 mph 1014.6mb 82f
4:00pm 10
mph
1014.4mb 82f
3:00pm 9 10 mph 1015mb 82f
2:00pm 6
mph
1014.8mb 83f
1:00pm 2 3 mph 1016mb 82f
12:00pm 3
mph
1016.8mb 81f
11:00am 7 8 mph 1016.7mb 80f
10:00am 13 15 mph 1017.2mb 79f
9:00am 8
mph
1017.1mb 80f
8:00am 3 5 mph 1016.7mb 80f
7:00am 7
mph
1016.5mb 78f
6:00am 3
mph
1016mb 79f
5:00am 6 7 mph 1015.8mb 80f
4:00am 6 7 mph 1015.5mb 80f
3:00am 1 2 mph 1015.4mb 80f
2:00am 2
mph
1015.6mb 82f
1:00am 2 3 mph 1015.8mb 82f
12:00am 3 5 mph 1015.8mb 82f
Sun 09/21 11:00pm 6 8 mph 1015.8mb 82f
10:00pm 8 9 mph 1016.1mb 82f
9:00pm 8 9 mph 1016mb 82f
8:00pm 10
mph
1015.6mb 82f
7:00pm 9 10 mph 1015.2mb 82f
6:00pm 9 10 mph 1014.9mb 82f
5:00pm 8 9 mph 1015mb 82f
4:00pm 10 13 mph 1015mb 82f
3:00pm 13 14 mph 1015.1mb 82f
2:00pm 13 15 mph 1015.8mb 82f
1:00pm 10 13 mph 1016.6mb 82f
12:00pm 15 16 mph 1016.9mb 81f
11:00am 11 13 mph 1016.9mb 80f
10:00am 13 15 mph 1017mb 78f
9:00am 14 15 mph 1016.5mb 77f
8:00am 14 15 mph 1016.3mb 77f
7:00am 15 16 mph 1015.9mb 77f
6:00am 20 22 mph 1015.2mb 78f
5:00am 15 16 mph 1015.3mb 77f
4:00am 17 18 mph 1015.1mb 77f
3:00am 16 17 mph 1014.8mb 78f
2:00am 14 16 mph 1014.7mb 78f
1:00am 16 18 mph 1014.4mb 79f
12:00am 17 20 mph 1015.1mb 79f
Sat 09/20 11:00pm 16 18 mph 1015.6mb 79f
10:00pm 17 20 mph 1015.7mb 80f
9:00pm 15 17 mph 1015.3mb 80f
8:00pm 14 15 mph 1014.7mb 81f
7:00pm 14 16 mph 1014.2mb 81f
6:00pm 13 15 mph 1014mb 82f
5:00pm 15 16 mph 1013.9mb 82f
4:00pm 14 16 mph 1014.2mb 81f
3:00pm 15 16 mph 1014.6mb 80f
2:00pm 15 17 mph 1014.8mb 80f
1:00pm 15 16 mph 1015.6mb 80f
12:00pm 14 15 mph 1016.5mb 79f
11:00am 13 15 mph 1016.4mb 78f
10:00am 15 17 mph 1016.1mb 76f
9:00am 17 20 mph 1015.9mb 76f
8:00am 20 22 mph 1015.4mb 76f
7:00am 20 22 mph 1015mb 76f
6:00am 21 22 mph 1014.4mb 76f
5:00am 21 23 mph 1014mb 77f
4:00am 18 21 mph 1013.8mb 78f
3:00am 18 20 mph 1013.9mb 78f
2:00am 16 18 mph 1014mb 78f
1:00am 13 15 mph 1014.3mb 80f
12:00am 15 17 mph 1014.8mb 82f
Fri 09/19 11:00pm 17 20 mph 1015.3mb 82f
10:00pm 17 21 mph 1015.2mb 82f
9:00pm 17 21 mph 1014.7mb 82f
8:00pm 20 22 mph 1014.2mb 82f